• Join FlightAware (Why Join?)
  • Login
  • US Flag 
03:21AM EDT


 

Airport Tracker/Info


-or-


 

Live Flight TrackerFlight Track Log ✈ N1944E ✈ 09-Jan-2014 ✈ KRKS - KCPR

Flight Track Log - Related Links

Times and Time Zones

All times are in EST time to prevent confusion due to time zone crossing. See the N1944E flight status page for this flight to view local times or setup timezone preferences in your user account.

Time Position Orientation Groundspeed Altitude Reporting Facility
EST Latitude Longitude Course Direction KTS MPH feet Rate Location/Type
07:19PM 41.6197 -109.0989 331° Northwest 136 157 8,400  Level Denver Center
07:20PM 41.6075 -109.0317 104° East 168 193 9,600 1,020 Climbing Denver Center
07:21PM 41.5789 -108.9800 127° Southeast 175 201 10,600 960 Climbing Denver Center
07:22PM 41.7371 -108.7929 55° Northeast  Level Estimated
07:22PM 41.5894 -108.9147 78° East 186 214 11,600  Level Denver Center
07:23PM 41.7653 -108.7380 56° Northeast  Level FlightAware Approximate
07:23PM 41.6336 -108.8769 33° Northeast 173 199 12,500  Level Denver Center
07:24PM 41.6725 -108.8150 50° Northeast 194 223 13,000 180 Climbing Salt Lake Center
07:25PM 41.7133 -108.7425 53° Northeast 212 244 13,000  Level Salt Lake Center
07:26PM 41.7489 -108.6811 52° Northeast 216 249 13,000  Level Salt Lake Center
07:27PM 41.7817 -108.6189 55° Northeast 216 249 13,000  Level Salt Lake Center
07:28PM 41.8194 -108.5486 54° Northeast 211 243 13,000  Level Salt Lake Center
07:29PM 41.8514 -108.4903 54° Northeast 207 238 13,000  Level Salt Lake Center
07:30PM 41.8878 -108.4222 54° Northeast 203 234 13,100  Climbing Salt Lake Center
07:31PM 41.9183 -108.3608 56° Northeast 204 235 13,100  Level Salt Lake Center
07:33PM 41.9581 -108.2906 53° Northeast 209 241 13,100  Level Salt Lake Center
07:34PM 41.9908 -108.2303 54° Northeast 209 241 13,100  Level Salt Lake Center
07:35PM 42.0286 -108.1575 55° Northeast 211 243 13,100  Level Salt Lake Center
07:36PM 42.0622 -108.0967 53° Northeast 211 243 13,100  Level Salt Lake Center
07:37PM 42.0956 -108.0344 54° Northeast 213 245 13,100  Level Salt Lake Center
07:38PM 42.1342 -107.9611 55° Northeast 214 246 13,100  Level Salt Lake Center
07:39PM 42.1672 -107.8983 55° Northeast 214 246 13,100  Level Salt Lake Center
07:40PM 42.2058 -107.8250 55° Northeast 214 246 13,100  Level Salt Lake Center
07:41PM 42.2389 -107.7631 54° Northeast 214 246 13,100  Level Salt Lake Center
07:42PM 42.2775 -107.6922 54° Northeast 212 244 13,100  Level Salt Lake Center
07:43PM 42.3106 -107.6289 55° Northeast 213 245 13,100  Level Salt Lake Center
07:44PM 42.3458 -107.5553 57° Northeast 211 243 13,100  Level Denver Center
07:45PM 42.3750 -107.4942 57° Northeast 206 237 13,100 -60 Level Salt Lake Center
07:46PM 42.4064 -107.4311 56° Northeast 209 241 13,000 -60 Descending Salt Lake Center
07:47PM 42.4436 -107.3636 53° Northeast 205 236 13,000  Level Salt Lake Center
07:48PM 42.4744 -107.3097 52° Northeast 195 224 13,000  Level Salt Lake Center
07:49PM 42.5089 -107.2400 56° Northeast 197 227 13,000  Level Salt Lake Center
07:50PM 42.5386 -107.1803 56° Northeast 200 230 13,000  Level Salt Lake Center
07:51PM 42.5756 -107.1097 55° Northeast 203 234 13,000  Level Salt Lake Center
07:52PM 42.6092 -107.0508 52° Northeast 206 237 13,000 -60 Level Salt Lake Center
07:53PM 42.6414 -106.9917 53° Northeast 205 236 12,900 -600 Descending Salt Lake Center
07:54PM 42.6769 -106.9169 57° Northeast 205 236 11,800 -840 Descending Salt Lake Center
07:55PM 42.7069 -106.8469 60° Northeast 209 241 11,200 -540 Descending Salt Lake Center
07:58PM 42.8269 -106.7503 58° Northeast 172 198 10,000 -420 Descending Denver Center
07:59PM 42.8644 -106.7156 34° Northeast 166 191 9,900 -780 Descending Denver Center
08:00PM 42.9036 -106.6500 51° Northeast 200 230 8,500 -780 Descending Denver Center
08:01PM 42.9381 -106.5972 48° Northeast 202 232 8,400 -540 Descending Denver Center
08:02PM 42.9856 -106.5147 52° Northeast 179 206 7,400 -480 Descending Denver Center
08:03PM 43.0286 -106.5244 351° North 187 215 7,400 -60 Level Denver Center
08:04PM 42.9853 -106.5122 168° South 167 192 7,300 -180 Descending Denver Center
08:05PM 42.9719 -106.4561 108° East 159 183 7,100 -240 Descending Denver Center